Time;durP1;ratioP1;P1;durP2;ratioP2;P2;SDS_P1;SDS_P2;PMS_P1;PMS_P2;Temp;Humidity;BMP_temperature;BMP_pressure;BME280_temperature;BME280_humidity;BME280_pressure;Samples;Min_cycle;Max_cycle;Signal;HPM_P1;HPM_P2
2022/07/01 00:01:49;;;;;;;;;;;;;;;14.73;100.00;101448.56;2612610;31;19958;-59
2022/07/01 00:04:18;;;;;;;;;;;;;;;14.79;100.00;101437.09;2612421;36;20046;-61
2022/07/01 00:06:46;;;;;;;;;;;;;;;14.82;100.00;101442.22;2613224;36;20938;-60
2022/07/01 00:09:14;;;;;;;;;;;;;;;14.61;100.00;101455.97;2613424;36;20682;-58
2022/07/01 00:11:42;;;;;;;;;;;;;;;14.68;100.00;101457.97;2613996;36;20002;-59
2022/07/01 00:14:10;;;;;;;;;;;;;;;14.54;100.00;101451.13;2613552;31;19974;-59
2022/07/01 00:16:38;;;;;;;;;;;;;;;14.53;100.00;101444.03;2613817;36;19962;-60
2022/07/01 00:19:09;;;;;;;;;;;;;;;14.46;100.00;101428.53;2612545;36;20832;-60
2022/07/01 00:21:37;;;;;;;;;;;;;;;14.47;100.00;101435.63;2613742;36;19951;-59
2022/07/01 00:24:06;;;;;;;;;;;;;;;14.44;100.00;101427.78;2612156;36;19946;-60
2022/07/01 00:26:34;;;;;;;;;;;;;;;14.44;100.00;101431.38;2614253;36;20356;-60
2022/07/01 00:29:03;;;;;;;;;;;;;;;14.41;100.00;101428.09;2613221;36;20447;-60
2022/07/01 00:31:31;;;;;;;;;;;;;;;14.41;100.00;101422.69;2613177;36;20030;-60
2022/07/01 00:33:59;;;;;;;;;;;;;;;14.22;100.00;101419.00;2613169;31;19973;-60
2022/07/01 00:36:30;;;;;;;;;;;;;;;14.36;100.00;101436.66;2613338;36;19958;-59
2022/07/01 00:38:58;;;;;;;;;;;;;;;14.34;100.00;101438.69;2613106;36;19958;-58
2022/07/01 00:41:26;;;;;;;;;;;;;;;14.32;100.00;101444.22;2614149;36;19943;-59
2022/07/01 00:43:58;;;;;;;;;;;;;;;14.30;100.00;101442.66;2614187;54;19946;-59
2022/07/01 00:46:26;;;;;;;;;;;;;;;14.35;100.00;101441.22;2613869;31;20446;-58
2022/07/01 00:48:56;;;;;;;;;;;;;;;14.28;100.00;101429.28;2612487;36;19970;-62
2022/07/01 00:51:24;;;;;;;;;;;;;;;14.22;100.00;101429.84;2612261;36;19954;-59
2022/07/01 00:53:57;;;;;;;;;;;;;;;14.22;100.00;101440.66;2612789;36;20425;-59
2022/07/01 00:56:26;;;;;;;;;;;;;;;14.15;100.00;101434.16;2612563;36;19947;-61
2022/07/01 00:58:54;;;;;;;;;;;;;;;14.23;100.00;101441.53;2610711;36;19957;-63
2022/07/01 01:01:22;;;;;;;;;;;;;;;14.30;100.00;101443.50;2606901;36;19973;-62
2022/07/01 01:03:50;;;;;;;;;;;;;;;14.25;100.00;101445.81;2613264;36;20066;-61
2022/07/01 01:06:18;;;;;;;;;;;;;;;14.28;100.00;101455.47;2612966;36;19950;-59
2022/07/01 01:08:48;;;;;;;;;;;;;;;14.30;100.00;101443.50;2612361;36;19947;-61
2022/07/01 01:11:19;;;;;;;;;;;;;;;14.31;100.00;101434.41;2613079;36;20309;-59
2022/07/01 01:13:47;;;;;;;;;;;;;;;14.32;100.00;101438.78;2612475;36;19977;-62
2022/07/01 01:16:20;;;;;;;;;;;;;;;14.31;100.00;101438.94;2613394;36;19950;-60
2022/07/01 01:18:48;;;;;;;;;;;;;;;14.26;100.00;101446.66;2609733;36;20339;-59
2022/07/01 01:21:19;;;;;;;;;;;;;;;14.28;100.00;101442.81;2612749;31;20436;-62
2022/07/01 01:23:47;;;;;;;;;;;;;;;14.24;100.00;101437.84;2611202;31;19998;-60
2022/07/01 01:26:18;;;;;;;;;;;;;;;14.17;100.00;101448.38;2612133;31;19953;-59
2022/07/01 01:28:46;;;;;;;;;;;;;;;14.19;100.00;101446.38;2611464;36;19950;-60
2022/07/01 01:31:15;;;;;;;;;;;;;;;14.29;100.00;101447.22;2610682;36;19969;-59
2022/07/01 01:33:43;;;;;;;;;;;;;;;14.20;100.00;101454.34;2608282;36;20502;-59
2022/07/01 01:36:11;;;;;;;;;;;;;;;14.18;100.00;101450.09;2603898;36;19966;-60
2022/07/01 01:38:42;;;;;;;;;;;;;;;14.10;100.00;101460.78;2603719;36;19973;-59
2022/07/01 01:41:10;;;;;;;;;;;;;;;14.13;100.00;101458.66;2610198;31;19977;-60
2022/07/01 01:43:38;;;;;;;;;;;;;;;14.20;100.00;101459.78;2612956;36;19978;-59
2022/07/01 01:46:06;;;;;;;;;;;;;;;14.20;100.00;101473.31;2611223;31;19947;-60
2022/07/01 01:48:34;;;;;;;;;;;;;;;14.09;100.00;101475.31;2611815;36;19951;-62
2022/07/01 01:51:02;;;;;;;;;;;;;;;14.12;100.00;101475.03;2612204;36;19959;-61
2022/07/01 01:53:30;;;;;;;;;;;;;;;14.16;100.00;101482.75;2610032;36;20322;-60
2022/07/01 01:56:01;;;;;;;;;;;;;;;14.14;100.00;101486.59;2613832;36;19951;-60
2022/07/01 01:58:29;;;;;;;;;;;;;;;14.18;100.00;101488.00;2613636;36;19992;-61
2022/07/01 02:00:57;;;;;;;;;;;;;;;14.13;100.00;101482.16;2606976;36;19954;-59
2022/07/01 02:03:25;;;;;;;;;;;;;;;14.04;100.00;101483.03;2613382;36;19969;-59
2022/07/01 02:05:53;;;;;;;;;;;;;;;14.07;100.00;101470.03;2613656;36;19950;-60
2022/07/01 02:08:21;;;;;;;;;;;;;;;14.19;100.00;101470.75;2613957;36;19995;-59
2022/07/01 02:10:49;;;;;;;;;;;;;;;14.17;100.00;101472.75;2613545;31;19951;-60
2022/07/01 02:13:20;;;;;;;;;;;;;;;14.18;100.00;101472.59;2614576;36;20348;-60
2022/07/01 02:15:49;;;;;;;;;;;;;;;14.11;100.00;101482.31;2613395;36;19981;-61
2022/07/01 02:18:17;;;;;;;;;;;;;;;14.06;100.00;101487.31;2613592;31;20071;-60
2022/07/01 02:20:45;;;;;;;;;;;;;;;14.13;100.00;101496.56;2613839;36;19958;-60
2022/07/01 02:23:13;;;;;;;;;;;;;;;13.97;100.00;101490.84;2614468;36;19946;-60
2022/07/01 02:25:41;;;;;;;;;;;;;;;13.98;100.00;101492.56;2614394;36;19966;-61
2022/07/01 02:28:10;;;;;;;;;;;;;;;13.91;100.00;101481.44;2613632;36;20377;-60
2022/07/01 02:30:41;;;;;;;;;;;;;;;13.90;100.00;101468.94;2613909;36;19987;-61
2022/07/01 02:33:09;;;;;;;;;;;;;;;13.93;100.00;101467.81;2612659;31;20038;-60
2022/07/01 02:35:39;;;;;;;;;;;;;;;13.85;100.00;101468.50;2612998;36;20348;-60
2022/07/01 02:38:07;;;;;;;;;;;;;;;13.90;100.00;101470.75;2611831;36;19946;-59
2022/07/01 02:40:37;;;;;;;;;;;;;;;13.93;100.00;101481.34;2613694;36;19947;-60
2022/07/01 02:43:05;;;;;;;;;;;;;;;13.84;100.00;101483.03;2613716;36;19957;-62
2022/07/01 02:45:33;;;;;;;;;;;;;;;13.80;100.00;101487.88;2613286;36;19953;-60
2022/07/01 02:48:04;;;;;;;;;;;;;;;13.77;100.00;101490.00;2612331;36;19953;-60
2022/07/01 02:50:32;;;;;;;;;;;;;;;13.72;100.00;101492.28;2613767;36;20413;-59
2022/07/01 02:53:00;;;;;;;;;;;;;;;13.74;100.00;101506.53;2613511;36;20328;-59
2022/07/01 02:55:29;;;;;;;;;;;;;;;13.69;100.00;101514.19;2611056;31;19951;-58
2022/07/01 02:57:57;;;;;;;;;;;;;;;13.70;100.00;101510.50;2606057;31;20317;-59
2022/07/01 03:00:26;;;;;;;;;;;;;;;13.60;100.00;101514.06;2613132;36;19950;-61
2022/07/01 03:02:55;;;;;;;;;;;;;;;13.56;100.00;101507.22;2612876;36;20432;-60
2022/07/01 03:05:26;;;;;;;;;;;;;;;13.58;100.00;101502.50;2613243;36;19946;-60
2022/07/01 03:07:54;;;;;;;;;;;;;;;13.50;100.00;101488.84;2613256;36;20321;-58
2022/07/01 03:10:22;;;;;;;;;;;;;;;13.53;100.00;101482.28;2612975;36;19950;-58
2022/07/01 03:12:51;;;;;;;;;;;;;;;13.57;100.00;101473.75;2613215;31;19957;-61
2022/07/01 03:15:19;;;;;;;;;;;;;;;13.48;100.00;101474.59;2611959;36;19946;-59
2022/07/01 03:17:48;;;;;;;;;;;;;;;13.44;100.00;101474.03;2613724;36;20077;-60
2022/07/01 03:20:17;;;;;;;;;;;;;;;13.52;100.00;101472.47;2614035;36;19998;-59
2022/07/01 03:22:49;;;;;;;;;;;;;;;13.45;100.00;101478.44;2613080;36;19978;-59
2022/07/01 03:25:18;;;;;;;;;;;;;;;13.48;100.00;101486.25;2613299;36;19951;-61
2022/07/01 03:27:47;;;;;;;;;;;;;;;13.45;100.00;101494.66;2613218;36;20384;-58
2022/07/01 03:30:17;;;;;;;;;;;;;;;13.46;100.00;101493.66;2610698;36;19947;-61
2022/07/01 03:32:46;;;;;;;;;;;;;;;13.45;100.00;101510.03;2612135;36;19973;-59
2022/07/01 03:37:57;;;;;;;;;;;;;;;13.41;100.00;101511.28;2610287;36;19947;-59
2022/07/01 03:40:25;;;;;;;;;;;;;;;13.38;100.00;101514.28;2613231;36;19977;-59
2022/07/01 03:42:53;;;;;;;;;;;;;;;13.35;100.00;101522.66;2610148;36;19954;-60
2022/07/01 03:45:21;;;;;;;;;;;;;;;13.32;100.00;101516.53;2612562;36;19951;-61
2022/07/01 03:47:50;;;;;;;;;;;;;;;13.30;100.00;101520.34;2612908;36;20336;-59
2022/07/01 03:50:18;;;;;;;;;;;;;;;13.32;100.00;101518.34;2613271;36;19954;-60
2022/07/01 03:52:46;;;;;;;;;;;;;;;13.26;100.00;101505.41;2613442;31;20336;-59
2022/07/01 03:55:16;;;;;;;;;;;;;;;13.26;100.00;101513.50;2612746;36;19950;-60
2022/07/01 03:57:44;;;;;;;;;;;;;;;13.19;100.00;101517.75;2613043;36;19953;-61
2022/07/01 04:00:13;;;;;;;;;;;;;;;13.19;100.00;101526.72;2613335;36;19951;-59
2022/07/01 04:02:41;;;;;;;;;;;;;;;13.25;100.00;101534.28;2613383;36;19947;-59
2022/07/01 04:05:09;;;;;;;;;;;;;;;13.30;100.00;101532.00;2613747;36;19950;-60
2022/07/01 04:07:37;;;;;;;;;;;;;;;13.30;100.00;101541.97;2613018;36;19954;-59
2022/07/01 04:10:06;;;;;;;;;;;;;;;13.36;100.00;101543.31;2612769;36;21987;-59
2022/07/01 04:12:37;;;;;;;;;;;;;;;13.39;100.00;101540.34;2613826;36;19958;-61
2022/07/01 04:15:05;;;;;;;;;;;;;;;13.39;100.00;101537.63;2611992;36;19998;-60
2022/07/01 04:17:34;;;;;;;;;;;;;;;13.45;100.00;101550.59;2613402;36;19946;-59
2022/07/01 04:20:02;;;;;;;;;;;;;;;13.58;100.00;101564.72;2613472;36;19978;-59
2022/07/01 04:22:33;;;;;;;;;;;;;;;13.54;100.00;101565.97;2613203;36;19942;-59
2022/07/01 04:25:03;;;;;;;;;;;;;;;13.62;100.00;101562.63;2613391;36;19958;-63
2022/07/01 04:27:31;;;;;;;;;;;;;;;13.72;100.00;101560.78;2614198;36;19950;-59
2022/07/01 04:30:02;;;;;;;;;;;;;;;13.50;100.00;101559.16;2612707;36;20451;-59
2022/07/01 04:32:30;;;;;;;;;;;;;;;13.52;100.00;101557.16;2613705;36;20075;-59
2022/07/01 04:34:58;;;;;;;;;;;;;;;13.48;100.00;101561.13;2613739;36;19973;-58
2022/07/01 04:37:26;;;;;;;;;;;;;;;13.57;100.00;101564.84;2613890;36;19973;-58
2022/07/01 04:39:54;;;;;;;;;;;;;;;13.55;100.00;101566.84;2612935;36;20439;-62
2022/07/01 04:42:22;;;;;;;;;;;;;;;13.36;100.00;101570.34;2613621;36;20347;-59
2022/07/01 04:44:50;;;;;;;;;;;;;;;13.40;100.00;101577.22;2613176;36;19957;-60
2022/07/01 04:47:22;;;;;;;;;;;;;;;13.43;100.00;101575.06;2613156;36;19957;-58
2022/07/01 04:49:50;;;;;;;;;;;;;;;13.45;100.00;101566.81;2613341;36;20634;-59
2022/07/01 04:52:18;;;;;;;;;;;;;;;13.43;100.00;101558.00;2612908;36;19946;-60
2022/07/01 04:54:46;;;;;;;;;;;;;;;13.51;100.00;101558.16;2611866;36;19954;-59
2022/07/01 04:57:14;;;;;;;;;;;;;;;13.58;100.00;101561.16;2613442;36;19955;-59
2022/07/01 04:59:42;;;;;;;;;;;;;;;13.56;100.00;101564.00;2613413;36;19977;-61
2022/07/01 05:02:10;;;;;;;;;;;;;;;13.59;100.00;101571.84;2610951;36;19958;-60
2022/07/01 05:04:42;;;;;;;;;;;;;;;13.58;100.00;101572.00;2613217;36;20832;-62
2022/07/01 05:07:27;;;;;;;;;;;;;;;13.54;100.00;101571.38;2612090;36;19950;-64
2022/07/01 05:09:55;;;;;;;;;;;;;;;13.73;100.00;101583.28;2612124;36;20488;-62
2022/07/01 05:12:24;;;;;;;;;;;;;;;13.60;100.00;101586.22;2613865;36;20361;-59
2022/07/01 05:14:52;;;;;;;;;;;;;;;13.60;100.00;101597.91;2614031;31;20030;-58
2022/07/01 05:21:55;;;;;;;;;;;;;;;13.47;100.00;101608.09;2613126;36;19962;-60
2022/07/01 05:22:53;;;;;;;;;;;;;;;13.53;100.00;101599.47;2613828;36;20072;-62
2022/07/01 05:25:21;;;;;;;;;;;;;;;13.60;100.00;101592.50;2612630;36;19950;-65
2022/07/01 05:27:49;;;;;;;;;;;;;;;13.49;100.00;101589.91;2614112;31;19951;-58
2022/07/01 05:30:17;;;;;;;;;;;;;;;13.61;100.00;101580.66;2612336;36;19971;-60
2022/07/01 05:32:45;;;;;;;;;;;;;;;13.74;100.00;101585.00;2613822;36;20431;-59
2022/07/01 05:35:16;;;;;;;;;;;;;;;13.71;100.00;101577.16;2614487;36;20351;-63
2022/07/01 05:37:44;;;;;;;;;;;;;;;13.91;100.00;101573.47;2614379;36;19950;-62
2022/07/01 05:40:13;;;;;;;;;;;;;;;13.85;100.00;101584.84;2614629;36;19950;-60
2022/07/01 05:42:41;;;;;;;;;;;;;;;13.87;100.00;101577.47;2614030;36;20057;-61
2022/07/01 05:45:09;;;;;;;;;;;;;;;13.91;100.00;101573.47;2613557;31;20267;-60
2022/07/01 05:47:38;;;;;;;;;;;;;;;13.94;100.00;101575.91;2613957;36;20086;-63
2022/07/01 05:50:06;;;;;;;;;;;;;;;14.09;100.00;101570.06;2613952;31;19954;-64
2022/07/01 05:52:37;;;;;;;;;;;;;;;13.99;100.00;101576.31;2613701;31;19950;-60
2022/07/01 05:55:06;;;;;;;;;;;;;;;13.96;100.00;101587.44;2614073;36;20031;-61
2022/07/01 05:57:34;;;;;;;;;;;;;;;14.02;100.00;101573.34;2613992;36;19956;-60
2022/07/01 06:00:02;;;;;;;;;;;;;;;14.17;100.00;101572.91;2613539;36;19958;-58
2022/07/01 06:02:30;;;;;;;;;;;;;;;14.13;100.00;101571.50;2611315;31;19970;-60
2022/07/01 06:04:59;;;;;;;;;;;;;;;14.27;100.00;101581.91;2613255;36;19954;-59
2022/07/01 06:07:27;;;;;;;;;;;;;;;14.28;100.00;101580.91;2613676;36;20469;-59
2022/07/01 06:09:58;;;;;;;;;;;;;;;14.22;100.00;101580.63;2614140;36;20321;-59
2022/07/01 06:12:26;;;;;;;;;;;;;;;14.24;100.00;101576.78;2612986;36;19970;-60
2022/07/01 06:14:54;;;;;;;;;;;;;;;14.28;100.00;101582.75;2611829;36;19958;-62
2022/07/01 06:17:22;;;;;;;;;;;;;;;14.48;100.00;101581.75;2611909;36;19981;-60
2022/07/01 06:19:50;;;;;;;;;;;;;;;14.40;100.00;101594.28;2612836;36;19951;-59
2022/07/01 06:22:20;;;;;;;;;;;;;;;14.36;100.00;101600.00;2613522;36;19985;-59
2022/07/01 06:24:48;;;;;;;;;;;;;;;14.58;100.00;101598.00;2612664;36;19946;-59
2022/07/01 06:27:19;;;;;;;;;;;;;;;14.53;100.00;101597.56;2612476;36;19955;-63
2022/07/01 06:29:47;;;;;;;;;;;;;;;14.61;100.00;101596.84;2612681;36;19954;-59
2022/07/01 06:32:15;;;;;;;;;;;;;;;14.88;100.00;101593.41;2613635;31;19969;-58
2022/07/01 06:34:43;;;;;;;;;;;;;;;14.94;100.00;101587.38;2612011;31;19950;-59
2022/07/01 06:37:11;;;;;;;;;;;;;;;15.25;100.00;101576.28;2613009;36;19959;-60
2022/07/01 06:39:39;;;;;;;;;;;;;;;15.23;100.00;101571.00;2612024;36;19958;-60
2022/07/01 06:42:08;;;;;;;;;;;;;;;14.98;100.00;101569.81;2610369;36;19946;-59
2022/07/01 06:44:38;;;;;;;;;;;;;;;15.37;100.00;101577.81;2604292;31;19962;-59
2022/07/01 06:47:07;;;;;;;;;;;;;;;15.35;100.00;101573.53;2613246;36;19985;-62
2022/07/01 06:49:35;;;;;;;;;;;;;;;15.19;100.00;101571.47;2610434;31;19954;-57
2022/07/01 06:52:03;;;;;;;;;;;;;;;15.02;100.00;101562.28;2614295;36;19954;-60
2022/07/01 06:54:31;;;;;;;;;;;;;;;15.25;100.00;101579.00;2612191;36;20558;-59
2022/07/01 06:56:59;;;;;;;;;;;;;;;15.16;100.00;101569.91;2612120;36;19953;-60
2022/07/01 06:59:27;;;;;;;;;;;;;;;15.35;100.00;101568.97;2611649;36;19978;-61
2022/07/01 07:01:58;;;;;;;;;;;;;;;15.20;100.00;101571.31;2611418;36;19957;-59
2022/07/01 07:04:26;;;;;;;;;;;;;;;15.17;100.00;101587.03;2610957;36;20314;-59
2022/07/01 07:06:54;;;;;;;;;;;;;;;15.10;100.00;101589.47;2612545;36;19946;-58
2022/07/01 07:09:22;;;;;;;;;;;;;;;15.29;100.00;101588.56;2612915;36;19953;-61
2022/07/01 07:11:50;;;;;;;;;;;;;;;15.17;100.00;101584.34;2613819;36;19947;-60
2022/07/01 07:14:18;;;;;;;;;;;;;;;15.27;100.00;101590.56;2613260;31;19946;-59
2022/07/01 07:16:46;;;;;;;;;;;;;;;15.05;100.00;101583.66;2613499;36;20297;-60
2022/07/01 07:19:17;;;;;;;;;;;;;;;15.47;100.00;101596.75;2612436;36;20373;-60
2022/07/01 07:21:45;;;;;;;;;;;;;;;15.77;100.00;101590.16;2613341;36;19973;-60
2022/07/01 07:24:13;;;;;;;;;;;;;;;16.39;100.00;101589.44;2613799;36;19969;-61
2022/07/01 07:26:41;;;;;;;;;;;;;;;16.37;100.00;101591.47;2614062;36;19959;-58
2022/07/01 07:29:09;;;;;;;;;;;;;;;16.54;100.00;101597.06;2615699;31;20343;-60
2022/07/01 07:31:37;;;;;;;;;;;;;;;16.69;100.00;101595.47;2614592;31;20400;-60
2022/07/01 07:34:05;;;;;;;;;;;;;;;16.45;100.00;101587.97;2613017;31;19981;-58
2022/07/01 07:36:36;;;;;;;;;;;;;;;16.51;100.00;101590.06;2612325;36;19953;-59
2022/07/01 07:39:04;;;;;;;;;;;;;;;16.59;100.00;101581.09;2612754;36;20462;-59
2022/07/01 07:41:32;;;;;;;;;;;;;;;16.29;100.00;101584.09;2613173;36;19950;-58
2022/07/01 07:44:00;;;;;;;;;;;;;;;16.52;100.00;101593.63;2605632;36;19946;-59
2022/07/01 07:46:28;;;;;;;;;;;;;;;16.54;100.00;101578.88;2612470;36;20327;-57
2022/07/01 07:48:57;;;;;;;;;;;;;;;16.26;100.00;101580.84;2598130;36;20425;-59
2022/07/01 07:51:26;;;;;;;;;;;;;;;16.21;100.00;101605.75;2611553;36;19979;-59
2022/07/01 07:53:56;;;;;;;;;;;;;;;16.69;100.00;101610.91;2611565;36;19998;-59
2022/07/01 07:56:24;;;;;;;;;;;;;;;16.76;100.00;101609.28;2610855;36;19957;-63
2022/07/01 07:58:52;;;;;;;;;;;;;;;17.07;100.00;101609.69;2611387;36;20521;-62
2022/07/01 08:01:20;;;;;;;;;;;;;;;17.10;100.00;101622.97;2611681;36;19947;-59
2022/07/01 08:03:49;;;;;;;;;;;;;;;17.22;100.00;101619.97;2610906;36;19951;-63
2022/07/01 08:06:17;;;;;;;;;;;;;;;17.24;100.00;101612.50;2610460;36;19979;-58
2022/07/01 08:08:45;;;;;;;;;;;;;;;17.14;100.00;101621.63;2612895;36;19950;-59
2022/07/01 08:11:16;;;;;;;;;;;;;;;17.17;100.00;101613.16;2612949;36;19973;-59
2022/07/01 08:13:44;;;;;;;;;;;;;;;17.33;100.00;101603.38;2612650;36;19947;-58
2022/07/01 08:16:12;;;;;;;;;;;;;;;17.47;100.00;101610.91;2610542;36;20538;-59
2022/07/01 08:18:40;;;;;;;;;;;;;;;17.73;100.00;101615.44;2611099;36;20575;-62
2022/07/01 08:21:08;;;;;;;;;;;;;;;17.56;100.00;101608.22;2611894;36;19950;-59
2022/07/01 08:23:36;;;;;;;;;;;;;;;17.91;100.00;101617.25;2609872;36;20544;-59
2022/07/01 08:26:04;;;;;;;;;;;;;;;17.23;100.00;101613.53;2612017;36;19991;-61
2022/07/01 08:28:35;;;;;;;;;;;;;;;17.32;100.00;101609.84;2612363;31;19951;-59
2022/07/01 08:31:03;;;;;;;;;;;;;;;18.05;100.00;101608.44;2609880;36;19977;-62
2022/07/01 08:33:31;;;;;;;;;;;;;;;18.16;100.00;101616.25;2612004;36;19985;-58
2022/07/01 08:35:59;;;;;;;;;;;;;;;18.44;100.00;101624.13;2612004;36;19955;-61
2022/07/01 08:38:27;;;;;;;;;;;;;;;18.41;100.00;101624.47;2612652;31;20348;-60
2022/07/01 08:40:55;;;;;;;;;;;;;;;18.13;100.00;101629.38;2612717;36;19999;-60
2022/07/01 08:43:23;;;;;;;;;;;;;;;18.21;100.00;101624.81;2613272;31;19947;-58
2022/07/01 08:45:54;;;;;;;;;;;;;;;18.32;100.00;101622.78;2613222;36;19983;-58
2022/07/01 08:48:23;;;;;;;;;;;;;;;18.41;100.00;101621.75;2605881;31;19994;-59
2022/07/01 08:50:51;;;;;;;;;;;;;;;19.08;100.00;101621.56;2606119;31;19954;-60
2022/07/01 08:53:19;;;;;;;;;;;;;;;19.12;100.00;101613.88;2612817;36;20546;-61
2022/07/01 08:58:28;;;;;;;;;;;;;;;18.99;100.00;101632.66;2613386;31;20337;-59
2022/07/01 09:01:13;;;;;;;;;;;;;;;18.82;100.00;101631.81;2612967;36;19957;-59
2022/07/01 09:03:41;;;;;;;;;;;;;;;18.74;100.00;101646.28;2610389;36;20348;-58
2022/07/01 09:06:14;;;;;;;;;;;;;;;19.17;100.00;101640.63;2609814;31;19950;-59
2022/07/01 09:08:42;;;;;;;;;;;;;;;19.09;100.00;101644.25;2610788;36;19954;-58
2022/07/01 09:11:13;;;;;;;;;;;;;;;18.98;100.00;101648.19;2612446;36;20427;-57
2022/07/01 09:13:41;;;;;;;;;;;;;;;18.60;100.00;101649.72;2612961;36;19977;-58
2022/07/01 09:16:16;;;;;;;;;;;;;;;19.17;100.00;101646.97;2612654;36;20432;-58
2022/07/01 09:19:01;;;;;;;;;;;;;;;19.57;100.00;101638.84;2611258;36;20320;-59
2022/07/01 09:21:30;;;;;;;;;;;;;;;20.12;100.00;101632.41;2611727;36;19953;-57
2022/07/01 09:23:58;;;;;;;;;;;;;;;19.36;100.00;101639.41;2611607;31;20375;-58
2022/07/01 09:26:27;;;;;;;;;;;;;;;19.50;100.00;101646.03;2612010;36;20511;-59
2022/07/01 09:28:55;;;;;;;;;;;;;;;18.95;100.00;101648.53;2612519;31;19950;-60
2022/07/01 09:31:32;;;;;;;;;;;;;;;19.22;100.00;101644.56;2613913;36;19951;-57
2022/07/01 09:34:08;;;;;;;;;;;;;;;19.77;100.00;101641.97;2612256;31;19942;-59
2022/07/01 09:36:39;;;;;;;;;;;;;;;20.06;100.00;101637.78;2613035;36;19951;-58
2022/07/01 09:39:07;;;;;;;;;;;;;;;19.92;100.00;101639.38;2611496;36;19993;-58
2022/07/01 09:41:40;;;;;;;;;;;;;;;20.48;100.00;101633.75;2613223;36;19954;-59
2022/07/01 09:44:09;;;;;;;;;;;;;;;20.29;100.00;101641.38;2611331;36;20549;-58
2022/07/01 09:46:40;;;;;;;;;;;;;;;19.73;100.00;101633.31;2614172;36;20455;-59
2022/07/01 09:49:08;;;;;;;;;;;;;;;19.80;100.00;101636.19;2611702;31;19950;-59
2022/07/01 09:51:36;;;;;;;;;;;;;;;18.76;100.00;101649.72;2606047;36;19962;-58
2022/07/01 09:54:04;;;;;;;;;;;;;;;19.40;100.00;101643.50;2610839;36;19957;-59
2022/07/01 09:56:32;;;;;;;;;;;;;;;19.97;100.00;101641.59;2612790;36;19954;-60
2022/07/01 09:59:00;;;;;;;;;;;;;;;20.63;100.00;101629.16;2606333;36;19950;-59
2022/07/01 10:01:28;;;;;;;;;;;;;;;20.43;100.00;101647.09;2611568;31;19946;-61
2022/07/01 10:03:59;;;;;;;;;;;;;;;20.75;100.00;101640.53;2612078;36;19977;-59
2022/07/01 10:06:45;;;;;;;;;;;;;;;20.16;100.00;101651.22;2609002;36;19954;-57
2022/07/01 10:09:20;;;;;;;;;;;;;;;19.20;100.00;101659.44;2611926;36;19985;-59
2022/07/01 10:12:10;;;;;;;;;;;;;;;18.35;100.00;101671.50;2613303;36;20345;-58
2022/07/01 10:14:40;;;;;;;;;;;;;;;18.01;100.00;101680.59;2612539;36;19954;-59
2022/07/01 10:17:08;;;;;;;;;;;;;;;18.19;100.00;101694.94;2613589;36;19954;-59
2022/07/01 10:19:39;;;;;;;;;;;;;;;18.48;100.00;101684.63;2612066;36;19951;-57
2022/07/01 10:22:22;;;;;;;;;;;;;;;18.29;100.00;101681.19;2609967;36;19980;-58
2022/07/01 10:24:50;;;;;;;;;;;;;;;18.44;100.00;101686.81;2610822;31;20455;-58
2022/07/01 10:27:22;;;;;;;;;;;;;;;18.56;100.00;101693.69;2610289;36;19951;-58
2022/07/01 10:29:50;;;;;;;;;;;;;;;18.83;100.00;101691.66;2611961;36;20809;-58
2022/07/01 10:32:29;;;;;;;;;;;;;;;19.17;100.00;101695.22;2612967;36;19946;-58
2022/07/01 10:35:08;;;;;;;;;;;;;;;18.79;100.00;101697.63;2613216;36;19947;-58
2022/07/01 10:37:36;;;;;;;;;;;;;;;18.34;100.00;101703.34;2610277;36;19977;-57
2022/07/01 10:40:06;;;;;;;;;;;;;;;18.32;100.00;101701.81;2610896;31;19974;-57
2022/07/01 10:42:36;;;;;;;;;;;;;;;18.26;100.00;101708.78;2612749;36;19951;-58
2022/07/01 10:45:12;;;;;;;;;;;;;;;18.19;100.00;101711.28;2611604;36;19980;-58
2022/07/01 10:47:41;;;;;;;;;;;;;;;18.07;100.00;101703.59;2612383;36;20538;-57
2022/07/01 10:50:15;;;;;;;;;;;;;;;18.46;100.00;101692.97;2610734;36;20817;-54
2022/07/01 10:52:58;;;;;;;;;;;;;;;18.90;100.00;101695.44;2612745;36;19954;-59
2022/07/01 10:55:38;;;;;;;;;;;;;;;19.57;100.00;101688.81;2610421;36;19950;-57
2022/07/01 10:58:06;;;;;;;;;;;;;;;19.95;100.00;101697.25;2605752;36;19980;-56
2022/07/01 11:00:35;;;;;;;;;;;;;;;20.44;100.00;101687.09;2612823;36;20317;-57
2022/07/01 11:03:17;;;;;;;;;;;;;;;20.40;100.00;101691.22;2601457;31;19981;-56
2022/07/01 11:05:48;;;;;;;;;;;;;;;20.23;100.00;101687.72;2612557;36;20420;-58
2022/07/01 11:08:16;;;;;;;;;;;;;;;19.98;100.00;101684.25;2609920;36;19988;-56
2022/07/01 11:10:45;;;;;;;;;;;;;;;20.19;100.00;101689.97;2611882;36;20048;-56
2022/07/01 11:13:16;;;;;;;;;;;;;;;19.57;100.00;101683.38;2611152;36;20029;-58
2022/07/01 11:15:47;;;;;;;;;;;;;;;19.57;100.00;101680.63;2608045;36;20468;-56
2022/07/01 11:18:16;;;;;;;;;;;;;;;19.90;100.00;101691.47;2610228;36;20912;-59
2022/07/01 11:20:44;;;;;;;;;;;;;;;20.51;100.00;101679.84;2609573;36;19954;-58
2022/07/01 11:23:16;;;;;;;;;;;;;;;21.01;100.00;101685.81;2611029;36;19959;-58
2022/07/01 11:25:44;;;;;;;;;;;;;;;21.20;100.00;101680.84;2613226;36;19947;-58
2022/07/01 11:28:14;;;;;;;;;;;;;;;20.85;100.00;101684.06;2612281;36;19974;-60
2022/07/01 11:30:42;;;;;;;;;;;;;;;21.18;100.00;101681.03;2612219;31;19947;-58
2022/07/01 11:33:10;;;;;;;;;;;;;;;20.91;100.00;101694.28;2611978;36;20005;-57
2022/07/01 11:41:19;;;;;;;;;;;;;;;21.74;100.00;101682.50;2610443;36;19950;-58
2022/07/01 11:43:47;;;;;;;;;;;;;;;21.35;100.00;101678.97;2613551;36;19947;-54
2022/07/01 11:46:16;;;;;;;;;;;;;;;21.99;100.00;101667.41;2613574;31;19957;-58
2022/07/01 11:48:45;;;;;;;;;;;;;;;22.26;100.00;101672.38;2613638;36;19955;-59
2022/07/01 11:51:14;;;;;;;;;;;;;;;21.60;89.62;101675.97;2612571;36;19955;-59
2022/07/01 11:53:46;;;;;;;;;;;;;;;21.29;100.00;101680.56;2613329;36;20391;-56
2022/07/01 11:56:15;;;;;;;;;;;;;;;20.98;100.00;101681.56;2613247;36;19954;-60
2022/07/01 11:58:46;;;;;;;;;;;;;;;20.51;100.00;101677.13;2613658;36;19946;-59
2022/07/01 12:01:22;;;;;;;;;;;;;;;20.74;100.00;101668.91;2612819;36;19946;-58
2022/07/01 12:03:50;;;;;;;;;;;;;;;20.69;100.00;101673.28;2607055;36;19946;-55
2022/07/01 12:06:19;;;;;;;;;;;;;;;20.96;100.00;101663.63;2605791;36;19946;-56
2022/07/01 12:08:51;;;;;;;;;;;;;;;21.24;100.00;101665.75;2611853;36;20352;-56
2022/07/01 12:11:21;;;;;;;;;;;;;;;20.30;100.00;101675.91;2613260;36;20348;-55
2022/07/01 12:13:50;;;;;;;;;;;;;;;20.42;100.00;101670.00;2612404;31;19947;-53
2022/07/01 12:16:18;;;;;;;;;;;;;;;21.10;100.00;101670.16;2612336;31;19947;-58
2022/07/01 12:18:56;;;;;;;;;;;;;;;21.05;100.00;101669.88;2612245;36;19985;-60
2022/07/01 12:21:25;;;;;;;;;;;;;;;21.85;100.00;101657.38;2613150;36;19947;-58
2022/07/01 12:24:12;;;;;;;;;;;;;;;21.72;100.00;101668.16;2611265;36;20034;-59
2022/07/01 12:26:50;;;;;;;;;;;;;;;21.77;95.28;101671.16;2610640;36;19962;-58
2022/07/01 12:29:19;;;;;;;;;;;;;;;22.40;98.80;101675.09;2610071;31;19997;-57
2022/07/01 12:31:56;;;;;;;;;;;;;;;22.30;88.13;101660.81;2611109;36;19974;-59
2022/07/01 12:34:24;;;;;;;;;;;;;;;22.27;91.20;101657.63;2611970;36;20007;-60
2022/07/01 12:36:53;;;;;;;;;;;;;;;22.31;85.84;101667.16;2611702;36;19943;-58
2022/07/01 12:39:23;;;;;;;;;;;;;;;22.28;96.71;101675.78;2613157;36;19961;-57
2022/07/01 12:41:52;;;;;;;;;;;;;;;22.26;88.51;101667.75;2612346;36;20440;-58
2022/07/01 12:44:24;;;;;;;;;;;;;;;22.49;83.73;101680.47;2612706;36;19950;-58
2022/07/01 12:49:33;;;;;;;;;;;;;;;22.20;78.37;101665.75;2611278;36;19959;-58
2022/07/01 12:52:01;;;;;;;;;;;;;;;22.55;87.46;101669.53;2611766;36;19951;-61
2022/07/01 12:54:36;;;;;;;;;;;;;;;23.09;80.66;101676.34;2611650;36;19981;-57
2022/07/01 12:57:04;;;;;;;;;;;;;;;23.19;78.64;101666.94;2611234;31;20351;-61